Time;durP1;ratioP1;P1;durP2;ratioP2;P2;SDS_P1;SDS_P2;PMS_P1;PMS_P2;Temp;Humidity;BMP_temperature;BMP_pressure;BME280_temperature;BME280_humidity;BME280_pressure;Samples;Min_cycle;Max_cycle;Signal;HPM_P1;HPM_P2
2022/03/24 00:02:05;;;;;;;8.93;2.75;;;7.00;32.70;;;;;;6214535;23;19989;-80
2022/03/24 00:04:31;;;;;;;8.93;2.95;;;7.00;32.90;;;;;;6213818;23;19997;-78
2022/03/24 00:06:57;;;;;;;9.07;3.80;;;6.90;32.70;;;;;;6214220;23;20008;-79
2022/03/24 00:09:22;;;;;;;9.32;3.78;;;7.00;32.70;;;;;;6188510;23;20020;-81
2022/03/24 00:11:48;;;;;;;7.60;3.33;;;6.90;32.70;;;;;;6214118;23;19989;-78
2022/03/24 00:14:16;;;;;;;8.77;3.40;;;6.90;32.70;;;;;;6213675;23;20000;-80
2022/03/24 00:16:43;;;;;;;7.07;3.08;;;7.00;32.80;;;;;;6188469;23;19995;-81
2022/03/24 00:19:09;;;;;;;9.38;3.50;;;6.90;32.80;;;;;;6187403;23;20059;-81
2022/03/24 00:21:35;;;;;;;;;;;6.80;32.80;;;;;;6188725;23;20013;-78
2022/03/24 00:24:01;;;;;;;10.05;4.10;;;6.80;32.90;;;;;;6188142;23;19924;-81
2022/03/24 00:26:27;;;;;;;12.88;4.50;;;6.90;33.10;;;;;;6188697;23;19997;-81
2022/03/24 00:55:46;;;;;;;9.02;3.22;;;6.70;32.90;;;;;;6174512;23;20089;-79
2022/03/24 00:58:13;;;;;;;14.13;4.20;;;6.70;32.80;;;;;;6184669;23;19989;-78
2022/03/24 01:00:40;;;;;;;8.93;3.83;;;6.60;32.80;;;;;;6186018;23;20000;-80
2022/03/24 01:03:07;;;;;;;7.68;3.63;;;6.70;32.50;;;;;;6186249;23;20004;-77
2022/03/24 01:05:37;;;;;;;8.95;3.88;;;6.80;32.20;;;;;;6186247;23;20008;-77
2022/03/24 01:08:08;;;;;;;7.05;3.58;;;7.00;31.60;;;;;;6186339;23;19994;-77
2022/03/24 01:10:34;;;;;;;7.05;3.05;;;7.10;31.00;;;;;;6161088;23;20037;-77
2022/03/24 01:13:00;;;;;;;6.82;3.58;;;7.30;30.40;;;;;;6160432;23;19986;-78
2022/03/24 01:15:27;;;;;;;9.05;2.97;;;7.40;30.00;;;;;;6160790;23;20004;-80
2022/03/24 01:17:53;;;;;;;9.07;3.55;;;7.60;29.50;;;;;;6161049;23;20000;-79
2022/03/24 01:20:21;;;;;;;8.82;3.22;;;7.70;29.00;;;;;;6186034;23;20065;-80
2022/03/24 01:22:47;;;;;;;9.60;3.58;;;7.70;28.70;;;;;;6160880;23;19997;-75
2022/03/24 01:25:14;;;;;;;16.25;3.85;;;7.70;28.70;;;;;;6161075;23;20005;-75
2022/03/24 01:46:34;;;;;;;12.40;3.65;;;6.90;30.60;;;;;;6211287;23;20068;-81
2022/03/24 01:49:00;;;;;;;7.78;3.45;;;6.80;30.60;;;;;;6244828;23;20012;-80
2022/03/24 01:51:26;;;;;;;;;;;6.80;30.40;;;;;;6219792;23;19988;-82
2022/03/24 01:53:57;;;;;;;11.43;2.80;;;6.80;30.20;;;;;;6219353;23;19976;-80
2022/03/24 01:56:24;;;;;;;6.82;2.80;;;6.90;29.90;;;;;;6218653;23;20043;-80
2022/03/24 01:58:50;;;;;;;7.13;2.70;;;7.10;29.00;;;;;;6217117;23;20048;-77
2022/03/24 02:01:27;;;;;;;9.50;3.33;;;7.50;27.80;;;;;;6243128;23;19977;-80
2022/03/24 02:03:55;;;;;;;8.77;4.15;;;7.70;27.90;;;;;;6217857;23;20013;-81
2022/03/24 02:06:21;;;;;;;6.82;2.78;;;7.80;27.90;;;;;;6217626;23;19991;-79
2022/03/24 02:08:47;;;;;;;;;;;7.80;28.40;;;;;;6243744;23;20011;-80
2022/03/24 02:11:13;;;;;;;8.32;2.92;;;7.70;28.80;;;;;;6242526;23;19892;-81
2022/03/24 02:13:39;;;;;;;4.78;2.50;;;7.50;28.90;;;;;;6242900;23;20008;-80
2022/03/24 02:16:10;;;;;;;10.43;4.45;;;7.40;29.20;;;;;;6215917;23;20051;-80
2022/03/24 02:18:36;;;;;;;10.88;2.60;;;7.30;29.50;;;;;;6242511;23;20012;-80
2022/03/24 02:21:03;;;;;;;6.35;2.90;;;7.10;29.70;;;;;;6243746;23;20000;-80
2022/03/24 02:23:28;;;;;;;7.10;3.38;;;7.10;29.80;;;;;;6242050;23;20020;-80
2022/03/24 02:25:57;;;;;;;4.60;2.40;;;7.00;29.80;;;;;;6212928;23;20014;-81
2022/03/24 02:28:26;;;;;;;6.10;2.45;;;6.90;29.90;;;;;;6212328;23;19996;-77
2022/03/24 02:30:52;;;;;;;4.30;2.03;;;6.90;29.80;;;;;;6207660;23;20033;-77
2022/03/24 02:33:23;;;;;;;6.38;2.60;;;7.00;29.60;;;;;;6207532;23;20012;-77
2022/03/24 02:35:52;;;;;;;8.02;2.50;;;7.00;29.20;;;;;;6208877;23;20001;-78
2022/03/24 02:38:21;;;;;;;8.35;2.85;;;7.10;28.90;;;;;;6181366;23;20005;-78
2022/03/24 02:40:49;;;;;;;8.00;3.00;;;7.10;28.80;;;;;;6208017;23;19997;-77
2022/03/24 02:43:20;;;;;;;10.27;3.95;;;7.20;28.70;;;;;;6207337;23;20064;-78
2022/03/24 02:45:49;;;;;;;7.00;3.22;;;7.30;28.70;;;;;;6206088;23;20017;-79
2022/03/24 02:48:15;;;;;;;10.25;3.45;;;7.30;28.70;;;;;;6208393;23;20028;-78
2022/03/24 02:50:40;;;;;;;9.98;3.50;;;7.40;28.40;;;;;;6203631;23;20427;-78
2022/03/24 02:53:06;;;;;;;13.90;3.67;;;7.40;28.50;;;;;;6180973;23;20005;-78
2022/03/24 02:55:32;;;;;;;21.25;7.40;;;7.50;28.50;;;;;;6207184;23;19993;-78
2022/03/24 02:57:57;;;;;;;11.73;4.65;;;7.50;28.10;;;;;;6180984;23;20009;-78
2022/03/24 03:00:25;;;;;;;12.90;5.85;;;7.60;27.20;;;;;;6205869;23;20001;-77
2022/03/24 03:02:54;;;;;;;10.98;5.55;;;7.60;26.90;;;;;;6206081;23;20001;-80
2022/03/24 03:05:20;;;;;;;9.63;4.70;;;7.60;27.20;;;;;;6205620;23;20020;-78
2022/03/24 03:07:46;;;;;;;12.88;5.05;;;7.50;27.20;;;;;;6177640;23;20029;-77
2022/03/24 03:10:12;;;;;;;14.27;6.00;;;7.30;28.30;;;;;;6203964;23;20068;-77
2022/03/24 03:12:38;;;;;;;10.15;5.28;;;7.10;29.40;;;;;;6178442;23;20001;-78
2022/03/24 03:15:06;;;;;;;;;;;6.80;29.70;;;;;;6206887;23;20044;-78
2022/03/24 03:17:36;;;;;;;12.48;5.22;;;6.60;30.20;;;;;;6205170;23;19900;-78
2022/03/24 03:20:03;;;;;;;20.17;6.90;;;6.30;30.90;;;;;;6180365;23;20001;-77
2022/03/24 03:22:29;;;;;;;12.95;6.63;;;6.20;31.20;;;;;;6204813;23;20052;-77
2022/03/24 03:24:55;;;;;;;12.77;5.95;;;6.00;31.70;;;;;;6205536;23;20009;-78
2022/03/24 03:27:21;;;;;;;16.85;6.68;;;5.80;32.10;;;;;;6180125;23;20453;-78
2022/03/24 03:29:47;;;;;;;22.55;9.10;;;5.70;32.70;;;;;;6207552;23;20005;-80
2022/03/24 03:32:13;;;;;;;29.95;10.77;;;5.50;33.00;;;;;;6205295;23;20005;-78
2022/03/24 03:34:41;;;;;;;22.38;8.00;;;5.40;33.10;;;;;;6180676;23;20508;-78
2022/03/24 03:37:08;;;;;;;18.00;6.88;;;5.30;33.20;;;;;;6180695;23;20050;-77
2022/03/24 03:39:34;;;;;;;11.30;5.38;;;5.30;33.40;;;;;;6206470;23;20012;-78
2022/03/24 03:42:00;;;;;;;14.52;6.10;;;5.10;34.20;;;;;;6204955;23;20010;-78
2022/03/24 03:44:26;;;;;;;;;;;5.00;34.60;;;;;;6205917;23;20017;-78
2022/03/24 03:46:52;;;;;;;20.85;9.02;;;5.00;34.30;;;;;;6205479;23;19923;-79
2022/03/24 03:49:20;;;;;;;;;;;5.00;34.00;;;;;;6207212;23;20033;-79
2022/03/24 03:51:46;;;;;;;18.92;7.13;;;5.10;33.90;;;;;;6206203;23;19900;-78
2022/03/24 03:54:12;;;;;;;15.52;7.38;;;5.10;33.80;;;;;;6206052;23;20004;-78
2022/03/24 03:56:38;;;;;;;16.27;7.20;;;5.10;33.40;;;;;;6205810;23;20005;-78
2022/03/24 03:59:08;;;;;;;17.30;6.47;;;5.20;33.60;;;;;;6204270;23;20009;-78
2022/03/24 04:01:36;;;;;;;18.58;7.65;;;5.10;33.50;;;;;;6179373;23;20004;-79
2022/03/24 04:04:04;;;;;;;18.80;8.10;;;5.10;33.70;;;;;;6205265;23;20052;-79
2022/03/24 04:06:29;;;;;;;20.15;7.85;;;5.10;34.20;;;;;;6205003;23;20008;-79
2022/03/24 04:08:55;;;;;;;17.90;7.95;;;5.10;34.20;;;;;;6205158;23;20001;-78
2022/03/24 04:11:21;;;;;;;10.13;4.38;;;5.10;34.20;;;;;;6205510;23;19981;-78
2022/03/24 04:13:47;;;;;;;8.77;3.88;;;5.10;34.40;;;;;;6205581;23;20001;-78
2022/03/24 04:16:13;;;;;;;10.27;4.45;;;5.10;34.10;;;;;;6205765;23;20005;-79
2022/03/24 04:18:40;;;;;;;;;;;5.10;33.70;;;;;;6206094;23;20008;-78
2022/03/24 04:21:07;;;;;;;10.20;5.03;;;5.10;33.90;;;;;;6205502;23;19888;-78
2022/03/24 04:23:34;;;;;;;21.38;6.38;;;5.10;34.20;;;;;;6179196;23;20005;-79
2022/03/24 04:26:00;;;;;;;18.27;7.13;;;5.10;34.90;;;;;;6179248;23;20017;-78
2022/03/24 04:28:25;;;;;;;13.93;5.45;;;5.10;35.30;;;;;;6206108;23;20005;-78
2022/03/24 04:30:51;;;;;;;17.20;6.60;;;5.20;35.30;;;;;;6179804;23;19989;-79
2022/03/24 04:33:16;;;;;;;12.20;5.85;;;5.30;34.90;;;;;;6206159;23;20443;-78
2022/03/24 04:35:42;;;;;;;11.60;5.35;;;5.40;35.10;;;;;;6180733;23;20005;-78
2022/03/24 04:38:08;;;;;;;19.95;6.07;;;5.40;34.90;;;;;;6206261;23;20004;-78
2022/03/24 04:40:34;;;;;;;10.77;4.50;;;5.40;34.90;;;;;;6207239;23;20045;-79
2022/03/24 04:43:00;;;;;;;12.88;4.13;;;5.50;34.30;;;;;;6180339;23;20061;-79
2022/03/24 04:45:29;;;;;;;10.15;4.15;;;5.80;33.10;;;;;;6206934;23;20016;-78
2022/03/24 04:47:55;;;;;;;10.80;3.95;;;5.90;33.10;;;;;;6207039;23;20020;-78
2022/03/24 04:50:21;;;;;;;;;;;6.00;33.10;;;;;;6207775;23;20032;-79
2022/03/24 04:52:47;;;;;;;13.20;4.75;;;6.10;33.10;;;;;;6180408;23;19884;-78
2022/03/24 04:55:14;;;;;;;15.45;4.93;;;6.20;33.00;;;;;;6180958;23;20008;-79
2022/03/24 04:57:40;;;;;;;9.32;4.20;;;6.10;33.60;;;;;;6205372;23;20001;-79
2022/03/24 05:00:08;;;;;;;10.27;5.38;;;6.00;34.30;;;;;;6177979;23;20002;-78
2022/03/24 05:02:35;;;;;;;15.90;4.50;;;6.00;34.30;;;;;;6206808;23;20009;-79
2022/03/24 05:05:01;;;;;;;16.13;6.75;;;5.90;34.30;;;;;;6207196;23;20088;-78
2022/03/24 05:07:27;;;;;;;16.17;5.47;;;5.90;34.60;;;;;;6181110;23;19998;-78
2022/03/24 05:09:53;;;;;;;;;;;5.90;34.30;;;;;;6181675;23;19993;-79
2022/03/24 05:12:19;;;;;;;15.27;6.25;;;5.90;35.00;;;;;;6205740;23;19900;-77
2022/03/24 05:14:44;;;;;;;14.90;6.03;;;5.90;35.10;;;;;;6206964;23;20009;-78
2022/03/24 05:17:10;;;;;;;11.82;6.07;;;5.90;35.40;;;;;;6180951;23;19993;-78
2022/03/24 05:19:35;;;;;;;12.80;5.57;;;6.00;35.00;;;;;;6180461;23;20002;-79
2022/03/24 05:22:02;;;;;;;13.50;5.63;;;6.10;34.40;;;;;;6206198;23;19985;-79
2022/03/24 05:24:28;;;;;;;9.73;5.05;;;6.20;34.20;;;;;;6207468;23;20005;-79
2022/03/24 05:26:54;;;;;;;;;;;6.40;33.90;;;;;;6208344;23;19985;-79
2022/03/24 05:29:19;;;;;;;8.50;3.50;;;6.60;32.80;;;;;;6206618;23;19905;-78
2022/03/24 05:31:45;;;;;;;8.27;3.60;;;6.70;32.90;;;;;;6207099;23;20005;-78
2022/03/24 05:34:11;;;;;;;;;;;6.90;32.70;;;;;;6181096;23;19993;-78
2022/03/24 05:36:37;;;;;;;55.63;21.30;;;7.00;33.60;;;;;;6197745;23;19908;-79
2022/03/24 05:39:04;;;;;;;23.80;11.02;;;7.00;33.80;;;;;;6208286;23;19993;-79
2022/03/24 05:41:30;;;;;;;23.90;9.43;;;7.20;34.20;;;;;;6183710;23;20005;-79
2022/03/24 05:44:05;;;;;;;20.27;9.13;;;7.50;33.80;;;;;;6205674;23;20019;-79
2022/03/24 05:46:32;;;;;;;23.00;8.60;;;8.10;33.20;;;;;;6207230;23;20029;-79
2022/03/24 05:48:58;;;;;;;19.05;9.05;;;8.80;32.70;;;;;;6211183;23;20004;-77
2022/03/24 05:51:25;;;;;;;24.02;10.23;;;9.50;31.90;;;;;;6213514;23;19989;-76
2022/03/24 05:53:51;;;;;;;42.95;17.27;;;10.20;30.90;;;;;;6213971;23;20032;-80
2022/03/24 05:56:16;;;;;;;;;;;10.70;29.90;;;;;;6186940;23;19995;-80
2022/03/24 05:58:43;;;;;;;24.35;11.18;;;11.30;28.70;;;;;;6178848;23;19904;-82
2022/03/24 06:01:09;;;;;;;33.75;13.15;;;11.70;27.90;;;;;;6205520;23;20441;-81
2022/03/24 06:03:36;;;;;;;33.45;12.77;;;12.30;27.70;;;;;;6206999;23;20001;-81
2022/03/24 06:06:06;;;;;;;35.78;12.48;;;12.70;27.30;;;;;;6207027;23;20338;-82
2022/03/24 06:08:33;;;;;;;88.68;29.73;;;12.90;27.40;;;;;;6206493;23;20005;-81
2022/03/24 06:11:00;;;;;;;89.28;21.52;;;13.30;26.90;;;;;;6207893;23;20001;-82
2022/03/24 06:13:26;;;;;;;55.70;14.77;;;13.60;26.70;;;;;;6167863;23;20012;-82
2022/03/24 06:15:53;;;;;;;68.57;10.65;;;13.90;27.00;;;;;;6182685;23;20132;-85
2022/03/24 06:18:19;;;;;;;53.92;8.50;;;14.20;24.80;;;;;;6151991;23;20005;-83
2022/03/24 06:20:46;;;;;;;74.13;10.32;;;14.50;23.60;;;;;;6151789;23;20079;-89
2022/03/24 06:23:11;;;;;;;78.15;10.85;;;15.10;23.10;;;;;;6152273;23;20041;-85
2022/03/24 06:25:37;;;;;;;;;;;15.60;22.70;;;;;;6178655;23;20020;-87
2022/03/24 06:28:06;;;;;;;93.80;12.10;;;16.00;22.20;;;;;;6151354;23;19912;-88
2022/03/24 06:30:32;;;;;;;106.53;12.65;;;16.70;22.10;;;;;;6177782;23;19997;-87
2022/03/24 06:32:58;;;;;;;108.90;16.20;;;17.20;21.90;;;;;;6152015;23;20016;-86
2022/03/24 06:35:24;;;;;;;97.90;15.55;;;17.70;21.50;;;;;;6178515;23;20343;-85
2022/03/24 06:37:51;;;;;;;87.95;13.43;;;18.40;20.50;;;;;;6178539;23;20004;-84
2022/03/24 06:40:17;;;;;;;85.93;11.02;;;18.90;19.40;;;;;;6177886;23;20138;-84
2022/03/24 06:42:43;;;;;;;55.88;9.32;;;19.60;19.10;;;;;;6151307;23;20075;-83
2022/03/24 06:45:11;;;;;;;49.58;7.97;;;20.30;18.40;;;;;;6177827;23;20684;-82
2022/03/24 06:47:38;;;;;;;64.28;8.60;;;21.10;17.60;;;;;;6178187;23;20088;-82
2022/03/24 06:50:05;;;;;;;46.35;8.60;;;21.80;17.30;;;;;;6177379;23;20013;-81
2022/03/24 06:52:31;;;;;;;47.72;8.48;;;22.60;16.80;;;;;;6151026;23;20367;-81
2022/03/24 06:54:56;;;;;;;43.15;7.20;;;23.30;15.60;;;;;;6177752;23;20020;-81
2022/03/24 06:57:22;;;;;;;28.90;6.22;;;24.20;15.00;;;;;;6150292;23;20009;-80
2022/03/24 06:59:47;;;;;;;15.80;6.90;;;25.00;14.20;;;;;;6151392;23;20005;-79
2022/03/24 07:02:13;;;;;;;17.38;7.43;;;25.30;14.00;;;;;;6177632;23;20339;-80
2022/03/24 07:04:39;;;;;;;18.60;5.65;;;26.00;13.40;;;;;;6150696;23;20283;-81
2022/03/24 07:07:04;;;;;;;11.30;3.97;;;26.20;12.60;;;;;;6177766;23;20029;-80
2022/03/24 07:09:30;;;;;;;6.78;4.15;;;26.20;11.80;;;;;;6151163;23;20450;-80
2022/03/24 07:11:56;;;;;;;7.28;3.63;;;26.40;12.10;;;;;;6176505;23;20097;-79
2022/03/24 07:14:23;;;;;;;14.85;5.35;;;26.60;11.90;;;;;;6176906;23;20008;-79
2022/03/24 07:16:49;;;;;;;15.85;4.40;;;27.00;11.70;;;;;;6177027;23;20071;-81
2022/03/24 07:19:15;;;;;;;9.18;4.40;;;26.70;11.80;;;;;;6176899;23;20009;-79
2022/03/24 07:21:40;;;;;;;9.43;4.28;;;26.70;11.70;;;;;;6177607;23;20043;-81
2022/03/24 07:24:06;;;;;;;31.25;5.45;;;26.70;12.40;;;;;;6177525;23;20040;-80
2022/03/24 07:26:32;;;;;;;16.77;4.38;;;27.10;12.60;;;;;;6174928;23;20037;-81
2022/03/24 07:28:58;;;;;;;16.17;4.95;;;27.30;12.90;;;;;;6177347;23;20009;-80
2022/03/24 07:31:24;;;;;;;15.20;5.10;;;27.60;12.90;;;;;;6176948;23;20005;-80
2022/03/24 07:33:53;;;;;;;10.82;4.95;;;28.00;13.30;;;;;;6150977;23;20001;-80
2022/03/24 07:36:22;;;;;;;12.93;5.50;;;28.30;12.50;;;;;;6150809;23;20016;-80
2022/03/24 07:38:50;;;;;;;8.32;4.50;;;28.70;11.90;;;;;;6177665;23;20059;-80
2022/03/24 07:41:15;;;;;;;8.30;4.40;;;28.50;12.10;;;;;;6149964;23;20068;-80
2022/03/24 07:43:41;;;;;;;12.88;4.47;;;28.80;12.40;;;;;;6150744;23;20009;-79
2022/03/24 07:46:07;;;;;;;9.43;4.63;;;28.90;12.10;;;;;;6177061;23;20017;-80
2022/03/24 07:48:32;;;;;;;14.48;5.22;;;29.10;12.00;;;;;;6176902;23;20001;-80
2022/03/24 07:51:00;;;;;;;8.63;3.70;;;29.30;11.90;;;;;;6177389;23;20098;-80
2022/03/24 07:53:28;;;;;;;10.45;4.68;;;29.50;12.10;;;;;;6150463;23;20383;-80
2022/03/24 07:55:57;;;;;;;10.48;4.03;;;30.00;11.80;;;;;;6150499;23;20013;-80
2022/03/24 07:58:22;;;;;;;6.63;3.90;;;30.20;11.60;;;;;;6177103;23;20012;-80
2022/03/24 08:00:48;;;;;;;7.40;4.43;;;30.40;11.40;;;;;;6176599;23;20013;-80
2022/03/24 08:03:16;;;;;;;12.13;6.80;;;31.00;11.50;;;;;;6175779;23;20012;-80
2022/03/24 08:05:43;;;;;;;13.52;4.47;;;31.70;10.60;;;;;;6176631;23;20020;-80
2022/03/24 08:08:09;;;;;;;8.43;4.53;;;31.20;10.00;;;;;;6176643;23;20084;-80
2022/03/24 08:10:36;;;;;;;10.30;4.22;;;30.40;10.70;;;;;;6176615;23;20101;-80
2022/03/24 08:13:03;;;;;;;12.75;4.03;;;30.80;10.80;;;;;;6177088;23;20012;-79
2022/03/24 08:15:28;;;;;;;9.02;4.70;;;30.70;10.60;;;;;;6176580;23;20004;-80
2022/03/24 08:17:54;;;;;;;19.38;4.53;;;31.00;10.70;;;;;;6176949;23;20001;-79
2022/03/24 08:20:19;;;;;;;10.63;4.13;;;31.50;10.60;;;;;;6150095;23;20032;-79
2022/03/24 08:22:45;;;;;;;7.30;4.15;;;31.60;9.80;;;;;;6150720;23;20446;-80
2022/03/24 08:25:11;;;;;;;6.00;3.60;;;31.60;9.60;;;;;;6149873;23;20494;-80
2022/03/24 08:27:37;;;;;;;12.55;4.03;;;31.20;9.40;;;;;;6176950;23;20001;-79
2022/03/24 08:30:06;;;;;;;6.00;3.65;;;30.70;9.20;;;;;;6149964;23;20005;-80
2022/03/24 08:32:32;;;;;;;8.18;3.92;;;30.70;9.70;;;;;;6150699;23;20009;-80
2022/03/24 08:34:58;;;;;;;8.25;3.58;;;30.70;9.80;;;;;;6150369;23;20013;-80
2022/03/24 08:37:24;;;;;;;6.93;3.42;;;30.80;10.00;;;;;;6176907;23;20332;-79
2022/03/24 08:39:49;;;;;;;6.00;3.30;;;30.50;9.20;;;;;;6149472;23;20063;-80
2022/03/24 08:42:15;;;;;;;8.60;3.97;;;30.10;8.90;;;;;;6176803;23;20009;-79
2022/03/24 08:44:41;;;;;;;6.93;3.78;;;29.20;9.40;;;;;;6176453;23;20354;-80
2022/03/24 08:47:07;;;;;;;8.10;3.33;;;28.40;9.20;;;;;;6176867;23;20020;-82
2022/03/24 08:49:32;;;;;;;12.10;3.30;;;28.20;9.30;;;;;;6176832;23;20012;-83
2022/03/24 08:51:59;;;;;;;6.35;3.92;;;27.90;9.70;;;;;;6177636;23;20001;-82
2022/03/24 08:54:24;;;;;;;7.85;3.90;;;27.30;10.30;;;;;;6176414;23;20005;-84
2022/03/24 08:56:50;;;;;;;14.45;4.65;;;26.90;10.10;;;;;;6176710;23;20599;-83
2022/03/24 08:59:16;;;;;;;7.15;4.07;;;26.20;10.20;;;;;;6150818;23;20009;-83
2022/03/24 09:01:43;;;;;;;10.98;4.60;;;26.10;11.00;;;;;;6176767;23;20083;-83
2022/03/24 09:04:10;;;;;;;9.70;4.18;;;26.50;11.10;;;;;;6150408;23;20024;-84
2022/03/24 09:06:36;;;;;;;8.20;4.40;;;26.60;11.10;;;;;;6177054;23;20005;-83
2022/03/24 09:09:03;;;;;;;9.85;4.47;;;26.20;11.20;;;;;;6150135;23;20012;-82
2022/03/24 09:11:28;;;;;;;5.32;3.83;;;26.20;11.00;;;;;;6176785;23;20005;-82
2022/03/24 09:13:54;;;;;;;7.60;3.78;;;25.90;11.30;;;;;;6178395;23;20312;-82
2022/03/24 09:16:21;;;;;;;13.18;4.68;;;26.10;11.10;;;;;;6178431;23;20037;-82
2022/03/24 09:18:47;;;;;;;13.15;4.63;;;26.00;11.70;;;;;;6178384;23;20004;-83
2022/03/24 09:21:13;;;;;;;9.07;3.72;;;26.00;11.50;;;;;;6152444;23;20015;-82
2022/03/24 09:23:39;;;;;;;10.20;4.00;;;25.80;11.70;;;;;;6152111;23;20056;-83
2022/03/24 09:26:05;;;;;;;14.30;4.03;;;25.70;11.80;;;;;;6152080;23;20021;-82
2022/03/24 09:28:31;;;;;;;9.93;3.88;;;25.60;11.70;;;;;;6152281;23;20033;-83
2022/03/24 09:30:58;;;;;;;11.93;4.05;;;25.60;11.10;;;;;;6151841;23;20421;-83
2022/03/24 09:33:24;;;;;;;10.63;4.35;;;25.70;11.20;;;;;;6178653;23;20059;-83
2022/03/24 09:35:50;;;;;;;12.18;5.15;;;25.40;11.40;;;;;;6178349;23;20005;-81
2022/03/24 09:38:17;;;;;;;8.57;4.03;;;25.30;11.80;;;;;;6152165;23;20063;-84
2022/03/24 09:40:44;;;;;;;15.38;4.03;;;25.40;11.80;;;;;;6178429;23;20008;-83
2022/03/24 09:43:09;;;;;;;7.53;3.85;;;25.40;11.50;;;;;;6151747;23;20012;-82
2022/03/24 09:45:37;;;;;;;8.57;4.32;;;25.80;11.60;;;;;;6178465;23;20025;-84
2022/03/24 09:48:06;;;;;;;12.23;4.43;;;25.80;11.40;;;;;;6178048;23;20001;-84
2022/03/24 09:50:34;;;;;;;12.88;4.63;;;25.60;11.20;;;;;;6178884;23;20005;-84
2022/03/24 09:53:00;;;;;;;10.23;5.20;;;25.30;11.50;;;;;;6151945;23;20005;-82
2022/03/24 09:55:30;;;;;;;10.68;4.15;;;25.40;11.30;;;;;;6178077;23;20346;-84
2022/03/24 09:57:57;;;;;;;10.30;4.75;;;25.20;11.40;;;;;;6151893;23;20012;-83
2022/03/24 10:00:23;;;;;;;22.58;3.92;;;25.50;11.60;;;;;;6151501;23;20005;-84
2022/03/24 10:03:16;;;;;;;8.98;4.57;;;25.50;11.00;;;;;;6151322;23;20016;-83
2022/03/24 10:05:57;;;;;;;11.38;4.05;;;25.40;10.90;;;;;;6151443;23;20363;-84
2022/03/24 10:08:25;;;;;;;9.48;4.05;;;25.90;10.60;;;;;;6178585;23;20451;-83
2022/03/24 10:11:00;;;;;;;13.52;4.25;;;26.20;10.50;;;;;;6152167;23;20059;-84
2022/03/24 10:13:42;;;;;;;7.95;4.07;;;26.10;10.60;;;;;;6152147;23;20013;-82
2022/03/24 10:16:08;;;;;;;7.13;4.15;;;26.20;11.10;;;;;;6152218;23;20473;-82
2022/03/24 10:18:34;;;;;;;10.95;4.55;;;26.70;11.20;;;;;;6178112;23;20047;-82
2022/03/24 10:21:08;;;;;;;14.70;4.35;;;27.30;10.60;;;;;;6178232;23;20009;-83
2022/03/24 10:23:43;;;;;;;5.20;3.15;;;27.10;10.50;;;;;;6150861;23;20005;-82
2022/03/24 10:26:08;;;;;;;8.50;3.88;;;27.00;10.90;;;;;;6177392;23;20013;-82
2022/03/24 10:28:34;;;;;;;6.07;3.97;;;27.60;11.30;;;;;;6178174;23;20001;-82
2022/03/24 10:31:02;;;;;;;8.60;4.70;;;27.90;10.90;;;;;;6178315;23;20009;-84
2022/03/24 10:33:54;;;;;;;13.57;4.63;;;27.80;10.30;;;;;;6176636;23;20028;-87
2022/03/24 10:36:25;;;;;;;9.25;4.13;;;26.70;10.70;;;;;;6170825;23;20005;-90
2022/03/24 10:38:53;;;;;;;7.07;4.53;;;25.80;10.80;;;;;;6151338;23;20058;-87
2022/03/24 10:41:28;;;;;;;7.13;4.35;;;25.20;11.60;;;;;;6151567;23;20012;-87
2022/03/24 10:43:58;;;;;;;10.60;4.27;;;24.80;11.60;;;;;;6150476;23;20013;-82
2022/03/24 10:46:25;;;;;;;6.78;4.15;;;24.40;11.80;;;;;;6177406;23;20028;-89
2022/03/24 10:48:52;;;;;;;15.73;5.13;;;24.10;12.60;;;;;;6151316;23;20005;-89
2022/03/24 10:51:28;;;;;;;7.05;4.40;;;23.60;12.40;;;;;;6151492;23;20587;-88
2022/03/24 10:54:09;;;;;;;10.05;4.78;;;23.40;13.00;;;;;;6150653;23;20013;-88
2022/03/24 10:56:39;;;;;;;11.95;4.47;;;23.30;13.10;;;;;;6178008;23;20091;-87
2022/03/24 10:59:05;;;;;;;9.98;5.53;;;23.30;13.20;;;;;;6177826;23;20013;-88
2022/03/24 11:01:32;;;;;;;8.43;4.45;;;23.30;13.10;;;;;;6177884;23;20008;-87
2022/03/24 11:03:58;;;;;;;9.45;5.22;;;23.10;13.00;;;;;;6150942;23;20435;-88
2022/03/24 11:06:24;;;;;;;9.15;4.95;;;22.90;13.30;;;;;;6177257;23;20072;-84
2022/03/24 11:08:54;;;;;;;7.82;4.60;;;22.80;13.10;;;;;;6177316;23;20394;-86
2022/03/24 11:11:21;;;;;;;7.38;4.53;;;22.70;13.40;;;;;;6151241;23;20016;-86
2022/03/24 11:13:57;;;;;;;7.88;4.68;;;22.70;13.60;;;;;;6151653;23;20036;-82
2022/03/24 11:16:25;;;;;;;9.75;5.00;;;22.70;13.90;;;;;;6151128;23;20017;-86
2022/03/24 11:18:53;;;;;;;10.15;5.07;;;22.60;13.80;;;;;;6151564;23;20005;-86
2022/03/24 11:21:33;;;;;;;9.73;4.53;;;22.60;13.50;;;;;;6151016;23;20036;-85
2022/03/24 11:23:59;;;;;;;8.02;4.85;;;22.60;13.40;;;;;;6150758;23;20013;-86
2022/03/24 11:26:25;;;;;;;9.90;4.93;;;22.40;13.60;;;;;;6152344;23;20039;-82
2022/03/24 11:28:56;;;;;;;7.78;4.60;;;22.40;13.40;;;;;;6164316;23;20031;-82
2022/03/24 11:31:31;;;;;;;11.30;5.30;;;22.10;13.50;;;;;;6185386;23;20009;-81
2022/03/24 11:34:00;;;;;;;8.10;5.18;;;21.70;13.50;;;;;;6204974;23;20017;-79
2022/03/24 11:36:27;;;;;;;12.57;6.38;;;21.40;13.70;;;;;;6209857;23;20544;-80
2022/03/24 11:38:58;;;;;;;8.77;4.80;;;21.30;14.20;;;;;;6209055;23;20005;-81
2022/03/24 11:41:39;;;;;;;7.63;5.00;;;21.20;14.10;;;;;;6204219;23;19996;-83
2022/03/24 11:44:28;;;;;;;9.07;4.70;;;21.20;14.20;;;;;;6201123;23;20005;-81
2022/03/24 11:46:58;;;;;;;8.27;4.55;;;21.30;14.50;;;;;;6167764;23;20028;-83
2022/03/24 11:49:29;;;;;;;9.60;4.75;;;21.50;14.70;;;;;;6160673;23;20005;-82
2022/03/24 11:51:57;;;;;;;10.32;4.68;;;21.60;14.20;;;;;;6183737;23;20005;-83
2022/03/24 11:54:52;;;;;;;7.85;4.82;;;21.60;13.80;;;;;;6184234;23;20059;-80
2022/03/24 11:57:25;;;;;;;8.48;4.45;;;21.60;14.00;;;;;;6158609;23;20009;-82
2022/03/24 12:00:13;;;;;;;10.55;4.65;;;21.60;14.20;;;;;;6185603;23;20029;-83
2022/03/24 12:02:44;;;;;;;7.95;4.00;;;21.70;14.30;;;;;;6156019;23;20008;-82
2022/03/24 12:05:11;;;;;;;9.88;4.68;;;21.80;14.10;;;;;;6175422;23;20048;-82
2022/03/24 12:07:38;;;;;;;8.05;4.18;;;21.80;14.30;;;;;;6179942;23;20001;-82
2022/03/24 12:10:09;;;;;;;10.80;4.75;;;21.80;14.30;;;;;;6180546;23;20021;-84
2022/03/24 12:12:36;;;;;;;10.63;4.45;;;21.90;14.60;;;;;;6153940;23;20013;-83
2022/03/24 12:15:23;;;;;;;10.30;4.22;;;22.00;14.50;;;;;;6152243;23;20040;-84
2022/03/24 12:18:06;;;;;;;16.48;5.10;;;22.10;14.40;;;;;;6178524;23;20001;-84
2022/03/24 12:20:43;;;;;;;17.40;4.97;;;22.10;14.00;;;;;;6152016;23;20147;-83
2022/03/24 12:23:09;;;;;;;10.10;5.18;;;22.10;14.00;;;;;;6179426;23;20016;-83
2022/03/24 12:25:36;;;;;;;8.07;4.70;;;22.00;14.00;;;;;;6178707;23;20096;-82
2022/03/24 12:28:03;;;;;;;7.68;4.95;;;21.90;13.70;;;;;;6189554;23;20033;-82
2022/03/24 12:30:49;;;;;;;9.95;4.78;;;21.80;13.70;;;;;;6199856;23;20047;-82
2022/03/24 12:33:18;;;;;;;11.05;4.40;;;21.50;13.70;;;;;;6200568;23;20036;-82
2022/03/24 12:35:46;;;;;;;8.90;4.32;;;21.30;14.00;;;;;;6198267;23;20005;-81
2022/03/24 12:38:24;;;;;;;11.10;5.07;;;21.30;14.00;;;;;;6176060;23;20005;-82
2022/03/24 12:41:08;;;;;;;7.03;4.45;;;21.20;14.20;;;;;;6181580;23;20001;-82
2022/03/24 12:43:58;;;;;;;14.98;4.78;;;21.20;14.50;;;;;;6176562;23;20011;-81
2022/03/24 12:46:27;;;;;;;16.88;5.10;;;21.30;14.40;;;;;;6203314;23;20076;-80
2022/03/24 12:48:55;;;;;;;7.72;4.65;;;21.30;14.30;;;;;;6172917;23;20035;-82
2022/03/24 12:51:30;;;;;;;11.52;4.63;;;21.40;14.50;;;;;;6193628;23;20005;-82
2022/03/24 12:54:02;;;;;;;13.57;4.95;;;21.50;14.30;;;;;;6193581;23;20001;-82
2022/03/24 12:56:33;;;;;;;8.70;4.38;;;21.60;14.20;;;;;;6161556;23;20012;-82
2022/03/24 12:59:06;;;;;;;11.60;4.45;;;21.70;14.30;;;;;;6187224;23;20012;-83
2022/03/24 13:01:33;;;;;;;6.47;4.35;;;21.70;14.20;;;;;;6185891;23;20011;-83
2022/03/24 13:04:05;;;;;;;8.43;4.25;;;21.70;14.30;;;;;;6184297;23;20009;-82
2022/03/24 13:06:33;;;;;;;11.55;4.28;;;21.70;14.40;;;;;;6157907;23;20096;-81
2022/03/24 13:09:18;;;;;;;10.30;4.65;;;21.70;14.00;;;;;;6157349;23;20040;-83
2022/03/24 13:12:00;;;;;;;15.00;4.97;;;21.80;14.50;;;;;;6159930;23;20450;-82
2022/03/24 13:14:27;;;;;;;7.18;4.32;;;21.80;14.30;;;;;;6161861;23;20039;-82
2022/03/24 13:17:13;;;;;;;9.50;4.85;;;21.80;14.50;;;;;;6162659;23;20477;-82
2022/03/24 13:19:42;;;;;;;8.70;5.30;;;21.80;14.40;;;;;;6164433;23;20009;-83
2022/03/24 13:22:18;;;;;;;11.77;4.45;;;21.80;14.50;;;;;;6188275;23;20052;-83
2022/03/24 13:24:54;;;;;;;;;;;21.80;14.60;;;;;;6193879;23;20020;-84
2022/03/24 13:27:20;;;;;;;8.13;5.00;;;21.70;14.30;;;;;;6187995;23;19923;-83
2022/03/24 13:29:46;;;;;;;10.88;4.95;;;21.70;14.30;;;;;;6190463;23;20435;-84
2022/03/24 13:32:26;;;;;;;10.27;5.00;;;21.70;14.40;;;;;;6172861;23;20072;-83
2022/03/24 13:35:03;;;;;;;12.10;4.60;;;21.60;14.60;;;;;;6191759;23;20008;-83
2022/03/24 13:37:43;;;;;;;10.68;4.85;;;21.60;14.40;;;;;;6195037;23;20005;-83
2022/03/24 13:40:12;;;;;;;16.98;4.68;;;21.50;14.20;;;;;;6170092;23;20059;-83